sensor_id;sensor_type;location;lat;lon;timestamp;P1;durP1;ratioP1;P2;durP2;ratioP2
18249;SDS011;27980;52.126;5.572;2023-03-24T00:01:49;7.05;;;3.60;;
18249;SDS011;27980;52.126;5.572;2023-03-24T00:04:19;5.50;;;2.28;;
18249;SDS011;27980;52.126;5.572;2023-03-24T00:06:45;4.38;;;2.97;;
18249;SDS011;27980;52.126;5.572;2023-03-24T00:09:13;3.78;;;1.85;;
18249;SDS011;27980;52.126;5.572;2023-03-24T00:11:41;4.28;;;2.22;;
18249;SDS011;27980;52.126;5.572;2023-03-24T00:14:09;6.22;;;2.30;;
18249;SDS011;27980;52.126;5.572;2023-03-24T00:16:38;4.95;;;1.80;;
18249;SDS011;27980;52.126;5.572;2023-03-24T00:19:08;4.68;;;1.80;;
18249;SDS011;27980;52.126;5.572;2023-03-24T00:21:34;3.20;;;1.88;;
18249;SDS011;27980;52.126;5.572;2023-03-24T00:24:01;4.18;;;1.70;;
18249;SDS011;27980;52.126;5.572;2023-03-24T00:26:29;5.95;;;2.30;;
18249;SDS011;27980;52.126;5.572;2023-03-24T00:28:59;3.78;;;2.08;;
18249;SDS011;27980;52.126;5.572;2023-03-24T00:31:27;4.40;;;2.20;;
18249;SDS011;27980;52.126;5.572;2023-03-24T00:33:53;5.35;;;2.22;;
18249;SDS011;27980;52.126;5.572;2023-03-24T00:36:20;4.63;;;2.20;;
18249;SDS011;27980;52.126;5.572;2023-03-24T00:38:48;3.88;;;2.00;;
18249;SDS011;27980;52.126;5.572;2023-03-24T00:41:15;5.05;;;2.25;;
18249;SDS011;27980;52.126;5.572;2023-03-24T00:43:43;6.47;;;1.95;;
18249;SDS011;27980;52.126;5.572;2023-03-24T00:46:15;4.97;;;2.35;;
18249;SDS011;27980;52.126;5.572;2023-03-24T00:48:51;3.05;;;1.92;;
18249;SDS011;27980;52.126;5.572;2023-03-24T00:51:26;5.25;;;2.00;;
18249;SDS011;27980;52.126;5.572;2023-03-24T00:53:53;4.53;;;2.38;;
18249;SDS011;27980;52.126;5.572;2023-03-24T00:56:22;3.20;;;1.95;;
18249;SDS011;27980;52.126;5.572;2023-03-24T00:58:49;3.22;;;1.75;;
18249;SDS011;27980;52.126;5.572;2023-03-24T01:01:17;2.95;;;2.10;;
18249;SDS011;27980;52.126;5.572;2023-03-24T01:03:46;2.42;;;2.20;;
18249;SDS011;27980;52.126;5.572;2023-03-24T01:06:15;2.85;;;1.77;;
18249;SDS011;27980;52.126;5.572;2023-03-24T01:08:46;3.88;;;1.77;;
18249;SDS011;27980;52.126;5.572;2023-03-24T01:11:13;2.28;;;1.90;;
18249;SDS011;27980;52.126;5.572;2023-03-24T01:13:40;3.17;;;2.30;;
18249;SDS011;27980;52.126;5.572;2023-03-24T01:16:08;3.13;;;1.83;;
18249;SDS011;27980;52.126;5.572;2023-03-24T01:18:37;3.67;;;2.15;;
18249;SDS011;27980;52.126;5.572;2023-03-24T01:21:05;5.45;;;2.33;;
18249;SDS011;27980;52.126;5.572;2023-03-24T01:23:32;3.78;;;1.77;;
18249;SDS011;27980;52.126;5.572;2023-03-24T01:26:02;2.78;;;2.20;;
18249;SDS011;27980;52.126;5.572;2023-03-24T01:28:29;2.97;;;1.75;;
18249;SDS011;27980;52.126;5.572;2023-03-24T01:30:56;6.18;;;1.92;;
18249;SDS011;27980;52.126;5.572;2023-03-24T01:33:22;4.72;;;2.30;;
18249;SDS011;27980;52.126;5.572;2023-03-24T01:35:53;3.03;;;1.85;;
18249;SDS011;27980;52.126;5.572;2023-03-24T01:38:20;3.90;;;2.13;;
18249;SDS011;27980;52.126;5.572;2023-03-24T01:40:47;5.07;;;2.17;;
18249;SDS011;27980;52.126;5.572;2023-03-24T01:43:16;6.88;;;2.15;;
18249;SDS011;27980;52.126;5.572;2023-03-24T01:48:24;3.50;;;2.40;;
18249;SDS011;27980;52.126;5.572;2023-03-24T01:50:56;4.43;;;2.10;;
18249;SDS011;27980;52.126;5.572;2023-03-24T01:53:23;4.93;;;2.35;;
18249;SDS011;27980;52.126;5.572;2023-03-24T01:55:50;3.58;;;2.28;;
18249;SDS011;27980;52.126;5.572;2023-03-24T01:58:17;3.47;;;1.75;;
18249;SDS011;27980;52.126;5.572;2023-03-24T02:00:44;2.97;;;2.45;;
18249;SDS011;27980;52.126;5.572;2023-03-24T02:03:11;3.22;;;2.05;;
18249;SDS011;27980;52.126;5.572;2023-03-24T02:05:40;4.80;;;2.35;;
18249;SDS011;27980;52.126;5.572;2023-03-24T02:08:13;3.42;;;2.33;;
18249;SDS011;27980;52.126;5.572;2023-03-24T02:10:42;3.28;;;2.22;;
18249;SDS011;27980;52.126;5.572;2023-03-24T02:13:10;3.00;;;2.25;;
18249;SDS011;27980;52.126;5.572;2023-03-24T02:15:38;4.32;;;2.22;;
18249;SDS011;27980;52.126;5.572;2023-03-24T02:18:08;2.67;;;1.85;;
18249;SDS011;27980;52.126;5.572;2023-03-24T02:23:33;3.10;;;2.42;;
18249;SDS011;27980;52.126;5.572;2023-03-24T02:26:18;4.03;;;2.35;;
18249;SDS011;27980;52.126;5.572;2023-03-24T02:28:50;3.90;;;2.28;;
18249;SDS011;27980;52.126;5.572;2023-03-24T02:31:30;3.28;;;2.45;;
18249;SDS011;27980;52.126;5.572;2023-03-24T02:34:11;4.50;;;2.30;;
18249;SDS011;27980;52.126;5.572;2023-03-24T02:39:30;3.08;;;2.33;;
18249;SDS011;27980;52.126;5.572;2023-03-24T02:42:02;5.28;;;2.30;;
18249;SDS011;27980;52.126;5.572;2023-03-24T02:44:33;3.78;;;2.08;;
18249;SDS011;27980;52.126;5.572;2023-03-24T02:47:02;4.40;;;2.38;;
18249;SDS011;27980;52.126;5.572;2023-03-24T02:49:32;2.53;;;2.00;;
18249;SDS011;27980;52.126;5.572;2023-03-24T02:52:03;4.15;;;1.80;;
18249;SDS011;27980;52.126;5.572;2023-03-24T02:54:36;2.40;;;2.20;;
18249;SDS011;27980;52.126;5.572;2023-03-24T02:57:07;5.47;;;2.25;;
18249;SDS011;27980;52.126;5.572;2023-03-24T02:59:37;3.72;;;2.00;;
18249;SDS011;27980;52.126;5.572;2023-03-24T03:02:05;3.72;;;1.85;;
18249;SDS011;27980;52.126;5.572;2023-03-24T03:04:35;2.70;;;1.98;;
18249;SDS011;27980;52.126;5.572;2023-03-24T03:07:04;2.63;;;1.85;;
18249;SDS011;27980;52.126;5.572;2023-03-24T03:09:35;2.50;;;1.83;;
18249;SDS011;27980;52.126;5.572;2023-03-24T03:12:02;4.10;;;1.90;;
18249;SDS011;27980;52.126;5.572;2023-03-24T03:14:31;5.03;;;1.73;;
18249;SDS011;27980;52.126;5.572;2023-03-24T03:17:00;3.17;;;1.52;;
18249;SDS011;27980;52.126;5.572;2023-03-24T03:19:30;1.65;;;1.55;;
18249;SDS011;27980;52.126;5.572;2023-03-24T03:21:58;1.35;;;1.20;;
18249;SDS011;27980;52.126;5.572;2023-03-24T03:24:25;6.15;;;1.27;;
18249;SDS011;27980;52.126;5.572;2023-03-24T03:26:57;3.00;;;1.20;;
18249;SDS011;27980;52.126;5.572;2023-03-24T03:29:25;6.82;;;0.75;;
18249;SDS011;27980;52.126;5.572;2023-03-24T03:31:54;3.35;;;1.27;;
18249;SDS011;27980;52.126;5.572;2023-03-24T03:34:26;1.20;;;0.90;;
18249;SDS011;27980;52.126;5.572;2023-03-24T03:36:56;0.63;;;0.63;;
18249;SDS011;27980;52.126;5.572;2023-03-24T03:39:26;1.00;;;0.75;;
18249;SDS011;27980;52.126;5.572;2023-03-24T03:41:55;2.97;;;1.17;;
18249;SDS011;27980;52.126;5.572;2023-03-24T03:44:22;1.83;;;1.02;;
18249;SDS011;27980;52.126;5.572;2023-03-24T03:46:49;6.22;;;0.85;;
18249;SDS011;27980;52.126;5.572;2023-03-24T03:49:17;1.90;;;0.88;;
18249;SDS011;27980;52.126;5.572;2023-03-24T03:51:44;3.30;;;0.70;;
18249;SDS011;27980;52.126;5.572;2023-03-24T03:54:11;3.45;;;1.02;;
18249;SDS011;27980;52.126;5.572;2023-03-24T03:56:39;2.90;;;1.02;;
18249;SDS011;27980;52.126;5.572;2023-03-24T03:59:09;3.80;;;1.00;;
18249;SDS011;27980;52.126;5.572;2023-03-24T04:01:47;4.65;;;1.05;;
18249;SDS011;27980;52.126;5.572;2023-03-24T04:04:21;1.90;;;1.08;;
18249;SDS011;27980;52.126;5.572;2023-03-24T04:06:54;2.50;;;0.80;;
18249;SDS011;27980;52.126;5.572;2023-03-24T04:09:29;2.10;;;1.08;;
18249;SDS011;27980;52.126;5.572;2023-03-24T04:12:12;6.60;;;1.55;;
18249;SDS011;27980;52.126;5.572;2023-03-24T04:20:22;2.35;;;0.93;;
18249;SDS011;27980;52.126;5.572;2023-03-24T04:23:00;2.50;;;1.10;;
18249;SDS011;27980;52.126;5.572;2023-03-24T04:25:29;6.45;;;1.35;;
18249;SDS011;27980;52.126;5.572;2023-03-24T04:27:59;3.70;;;1.17;;
18249;SDS011;27980;52.126;5.572;2023-03-24T04:30:29;4.03;;;0.90;;
18249;SDS011;27980;52.126;5.572;2023-03-24T04:32:58;6.28;;;1.80;;
18249;SDS011;27980;52.126;5.572;2023-03-24T04:35:29;9.30;;;1.58;;
18249;SDS011;27980;52.126;5.572;2023-03-24T04:37:57;3.97;;;1.65;;
18249;SDS011;27980;52.126;5.572;2023-03-24T04:40:26;3.88;;;1.45;;
18249;SDS011;27980;52.126;5.572;2023-03-24T04:42:53;3.83;;;1.80;;
18249;SDS011;27980;52.126;5.572;2023-03-24T04:45:22;8.25;;;1.70;;
18249;SDS011;27980;52.126;5.572;2023-03-24T04:47:52;1.58;;;1.30;;
18249;SDS011;27980;52.126;5.572;2023-03-24T04:50:26;4.45;;;1.55;;
18249;SDS011;27980;52.126;5.572;2023-03-24T04:52:55;4.40;;;1.40;;
18249;SDS011;27980;52.126;5.572;2023-03-24T04:55:38;3.92;;;1.60;;
18249;SDS011;27980;52.126;5.572;2023-03-24T04:58:08;10.23;;;1.83;;
18249;SDS011;27980;52.126;5.572;2023-03-24T05:00:35;7.57;;;1.98;;
18249;SDS011;27980;52.126;5.572;2023-03-24T05:03:01;9.70;;;1.95;;
18249;SDS011;27980;52.126;5.572;2023-03-24T05:05:27;4.00;;;1.05;;
18249;SDS011;27980;52.126;5.572;2023-03-24T05:07:56;4.63;;;1.33;;
18249;SDS011;27980;52.126;5.572;2023-03-24T05:10:22;3.35;;;1.02;;
18249;SDS011;27980;52.126;5.572;2023-03-24T05:12:49;5.30;;;1.40;;
18249;SDS011;27980;52.126;5.572;2023-03-24T05:15:18;10.73;;;1.90;;
18249;SDS011;27980;52.126;5.572;2023-03-24T05:17:44;4.47;;;1.35;;
18249;SDS011;27980;52.126;5.572;2023-03-24T05:20:11;2.45;;;1.30;;
18249;SDS011;27980;52.126;5.572;2023-03-24T05:22:39;9.68;;;1.60;;
18249;SDS011;27980;52.126;5.572;2023-03-24T05:25:07;9.82;;;1.95;;
18249;SDS011;27980;52.126;5.572;2023-03-24T05:27:33;4.65;;;1.65;;
18249;SDS011;27980;52.126;5.572;2023-03-24T05:30:00;5.75;;;1.30;;
18249;SDS011;27980;52.126;5.572;2023-03-24T05:32:26;11.07;;;1.90;;
18249;SDS011;27980;52.126;5.572;2023-03-24T05:34:53;8.63;;;1.60;;
18249;SDS011;27980;52.126;5.572;2023-03-24T05:37:19;7.45;;;1.50;;
18249;SDS011;27980;52.126;5.572;2023-03-24T05:39:49;10.63;;;1.40;;
18249;SDS011;27980;52.126;5.572;2023-03-24T05:42:17;9.50;;;1.42;;
18249;SDS011;27980;52.126;5.572;2023-03-24T05:44:43;7.75;;;0.85;;
18249;SDS011;27980;52.126;5.572;2023-03-24T05:47:10;8.70;;;1.90;;
18249;SDS011;27980;52.126;5.572;2023-03-24T05:49:40;8.55;;;2.03;;
18249;SDS011;27980;52.126;5.572;2023-03-24T05:52:07;6.97;;;1.25;;
18249;SDS011;27980;52.126;5.572;2023-03-24T05:54:33;10.68;;;1.45;;
18249;SDS011;27980;52.126;5.572;2023-03-24T05:57:00;7.25;;;1.30;;
18249;SDS011;27980;52.126;5.572;2023-03-24T05:59:28;8.30;;;1.60;;
18249;SDS011;27980;52.126;5.572;2023-03-24T06:01:55;5.82;;;1.48;;
18249;SDS011;27980;52.126;5.572;2023-03-24T06:04:22;13.00;;;1.50;;
18249;SDS011;27980;52.126;5.572;2023-03-24T06:06:49;10.90;;;1.98;;
18249;SDS011;27980;52.126;5.572;2023-03-24T06:09:15;10.43;;;1.70;;
18249;SDS011;27980;52.126;5.572;2023-03-24T06:11:42;7.55;;;1.63;;
18249;SDS011;27980;52.126;5.572;2023-03-24T06:14:08;6.70;;;1.25;;
18249;SDS011;27980;52.126;5.572;2023-03-24T06:16:36;9.27;;;1.23;;
18249;SDS011;27980;52.126;5.572;2023-03-24T06:19:04;6.50;;;1.65;;
18249;SDS011;27980;52.126;5.572;2023-03-24T06:21:30;5.47;;;1.60;;
18249;SDS011;27980;52.126;5.572;2023-03-24T06:23:57;5.80;;;1.88;;
18249;SDS011;27980;52.126;5.572;2023-03-24T06:26:24;9.73;;;1.90;;
18249;SDS011;27980;52.126;5.572;2023-03-24T06:28:52;4.35;;;1.45;;
18249;SDS011;27980;52.126;5.572;2023-03-24T06:31:18;3.95;;;1.60;;
18249;SDS011;27980;52.126;5.572;2023-03-24T06:33:47;8.95;;;1.63;;
18249;SDS011;27980;52.126;5.572;2023-03-24T06:36:14;6.18;;;1.33;;
18249;SDS011;27980;52.126;5.572;2023-03-24T06:38:41;10.73;;;2.00;;
18249;SDS011;27980;52.126;5.572;2023-03-24T06:41:08;6.13;;;1.80;;
18249;SDS011;27980;52.126;5.572;2023-03-24T06:43:34;6.55;;;1.63;;
18249;SDS011;27980;52.126;5.572;2023-03-24T06:46:01;9.23;;;1.95;;
18249;SDS011;27980;52.126;5.572;2023-03-24T06:48:27;8.75;;;1.63;;
18249;SDS011;27980;52.126;5.572;2023-03-24T06:51:04;3.58;;;1.83;;
18249;SDS011;27980;52.126;5.572;2023-03-24T06:53:30;5.15;;;1.80;;
18249;SDS011;27980;52.126;5.572;2023-03-24T06:55:57;5.22;;;1.90;;
18249;SDS011;27980;52.126;5.572;2023-03-24T06:58:23;8.43;;;2.45;;
18249;SDS011;27980;52.126;5.572;2023-03-24T07:00:50;8.55;;;1.90;;
18249;SDS011;27980;52.126;5.572;2023-03-24T07:03:17;10.75;;;2.33;;
18249;SDS011;27980;52.126;5.572;2023-03-24T07:05:47;7.65;;;2.03;;
18249;SDS011;27980;52.126;5.572;2023-03-24T07:08:15;9.75;;;1.80;;
18249;SDS011;27980;52.126;5.572;2023-03-24T07:10:45;7.43;;;2.38;;
18249;SDS011;27980;52.126;5.572;2023-03-24T07:13:11;11.23;;;2.25;;
18249;SDS011;27980;52.126;5.572;2023-03-24T07:15:37;4.95;;;1.63;;
18249;SDS011;27980;52.126;5.572;2023-03-24T07:18:04;8.63;;;1.50;;
18249;SDS011;27980;52.126;5.572;2023-03-24T07:20:31;8.30;;;1.75;;
18249;SDS011;27980;52.126;5.572;2023-03-24T07:22:57;8.57;;;1.52;;
18249;SDS011;27980;52.126;5.572;2023-03-24T07:25:25;10.27;;;1.85;;
18249;SDS011;27980;52.126;5.572;2023-03-24T07:27:52;4.25;;;1.42;;
18249;SDS011;27980;52.126;5.572;2023-03-24T07:30:19;9.10;;;2.10;;
18249;SDS011;27980;52.126;5.572;2023-03-24T07:32:45;8.07;;;2.35;;
18249;SDS011;27980;52.126;5.572;2023-03-24T07:35:13;9.85;;;2.17;;
18249;SDS011;27980;52.126;5.572;2023-03-24T07:37:41;9.02;;;1.75;;
18249;SDS011;27980;52.126;5.572;2023-03-24T07:40:07;3.55;;;1.73;;
18249;SDS011;27980;52.126;5.572;2023-03-24T07:42:37;6.38;;;1.40;;
18249;SDS011;27980;52.126;5.572;2023-03-24T07:45:06;5.70;;;1.60;;
18249;SDS011;27980;52.126;5.572;2023-03-24T07:47:33;7.45;;;1.65;;
18249;SDS011;27980;52.126;5.572;2023-03-24T07:50:00;4.75;;;1.48;;
18249;SDS011;27980;52.126;5.572;2023-03-24T07:52:28;9.63;;;1.70;;
18249;SDS011;27980;52.126;5.572;2023-03-24T07:54:54;6.32;;;1.77;;
18249;SDS011;27980;52.126;5.572;2023-03-24T07:57:21;10.20;;;2.17;;
18249;SDS011;27980;52.126;5.572;2023-03-24T07:59:49;4.13;;;1.52;;
18249;SDS011;27980;52.126;5.572;2023-03-24T08:02:16;5.90;;;2.00;;
18249;SDS011;27980;52.126;5.572;2023-03-24T08:04:42;7.20;;;1.50;;
18249;SDS011;27980;52.126;5.572;2023-03-24T08:07:10;5.50;;;1.48;;
18249;SDS011;27980;52.126;5.572;2023-03-24T08:09:38;11.27;;;1.83;;
18249;SDS011;27980;52.126;5.572;2023-03-24T08:12:04;4.35;;;1.35;;
18249;SDS011;27980;52.126;5.572;2023-03-24T08:14:30;7.10;;;2.28;;
18249;SDS011;27980;52.126;5.572;2023-03-24T08:16:58;9.27;;;1.40;;
18249;SDS011;27980;52.126;5.572;2023-03-24T08:19:27;8.95;;;1.52;;
18249;SDS011;27980;52.126;5.572;2023-03-24T08:21:54;4.35;;;1.42;;
18249;SDS011;27980;52.126;5.572;2023-03-24T08:24:21;4.18;;;1.17;;
18249;SDS011;27980;52.126;5.572;2023-03-24T08:26:47;7.05;;;1.42;;
18249;SDS011;27980;52.126;5.572;2023-03-24T08:29:16;3.50;;;1.10;;
18249;SDS011;27980;52.126;5.572;2023-03-24T08:31:43;9.75;;;1.40;;
18249;SDS011;27980;52.126;5.572;2023-03-24T08:34:10;8.07;;;1.60;;
18249;SDS011;27980;52.126;5.572;2023-03-24T08:36:37;8.43;;;2.30;;
18249;SDS011;27980;52.126;5.572;2023-03-24T08:39:05;8.55;;;1.77;;
18249;SDS011;27980;52.126;5.572;2023-03-24T08:41:33;3.88;;;1.00;;
18249;SDS011;27980;52.126;5.572;2023-03-24T08:44:00;9.35;;;1.95;;
18249;SDS011;27980;52.126;5.572;2023-03-24T08:46:31;7.30;;;1.38;;
18249;SDS011;27980;52.126;5.572;2023-03-24T08:48:58;4.05;;;1.17;;
18249;SDS011;27980;52.126;5.572;2023-03-24T08:51:27;5.70;;;1.17;;
18249;SDS011;27980;52.126;5.572;2023-03-24T08:53:55;5.57;;;1.05;;
18249;SDS011;27980;52.126;5.572;2023-03-24T08:56:21;2.80;;;1.10;;
18249;SDS011;27980;52.126;5.572;2023-03-24T08:58:48;7.18;;;1.50;;
18249;SDS011;27980;52.126;5.572;2023-03-24T09:01:17;5.63;;;1.15;;
18249;SDS011;27980;52.126;5.572;2023-03-24T09:03:44;2.80;;;1.33;;
18249;SDS011;27980;52.126;5.572;2023-03-24T09:06:11;2.97;;;1.23;;
18249;SDS011;27980;52.126;5.572;2023-03-24T09:08:40;1.80;;;1.13;;
18249;SDS011;27980;52.126;5.572;2023-03-24T09:11:11;4.72;;;1.58;;
18249;SDS011;27980;52.126;5.572;2023-03-24T09:13:38;7.05;;;0.90;;
18249;SDS011;27980;52.126;5.572;2023-03-24T09:16:05;5.55;;;1.15;;
18249;SDS011;27980;52.126;5.572;2023-03-24T09:18:31;2.50;;;1.27;;
18249;SDS011;27980;52.126;5.572;2023-03-24T09:20:58;5.68;;;1.85;;
18249;SDS011;27980;52.126;5.572;2023-03-24T09:23:25;6.43;;;1.25;;
18249;SDS011;27980;52.126;5.572;2023-03-24T09:25:54;4.30;;;1.40;;
18249;SDS011;27980;52.126;5.572;2023-03-24T09:28:21;4.50;;;1.80;;
18249;SDS011;27980;52.126;5.572;2023-03-24T09:30:48;9.70;;;1.15;;
18249;SDS011;27980;52.126;5.572;2023-03-24T09:33:14;6.68;;;1.33;;
18249;SDS011;27980;52.126;5.572;2023-03-24T09:35:41;5.00;;;0.90;;
18249;SDS011;27980;52.126;5.572;2023-03-24T09:38:15;5.03;;;1.83;;
18249;SDS011;27980;52.126;5.572;2023-03-24T09:40:42;4.53;;;1.70;;
18249;SDS011;27980;52.126;5.572;2023-03-24T09:43:13;7.75;;;1.27;;
18249;SDS011;27980;52.126;5.572;2023-03-24T09:45:47;6.43;;;1.13;;
18249;SDS011;27980;52.126;5.572;2023-03-24T09:48:16;6.03;;;1.33;;
18249;SDS011;27980;52.126;5.572;2023-03-24T09:50:47;5.15;;;1.15;;
18249;SDS011;27980;52.126;5.572;2023-03-24T09:53:17;11.50;;;1.45;;
18249;SDS011;27980;52.126;5.572;2023-03-24T09:55:46;5.18;;;1.38;;
18249;SDS011;27980;52.126;5.572;2023-03-24T09:58:16;6.95;;;1.23;;
18249;SDS011;27980;52.126;5.572;2023-03-24T10:00:45;2.80;;;0.88;;
18249;SDS011;27980;52.126;5.572;2023-03-24T10:03:13;7.07;;;1.30;;
18249;SDS011;27980;52.126;5.572;2023-03-24T10:05:40;5.22;;;0.88;;
18249;SDS011;27980;52.126;5.572;2023-03-24T10:08:11;2.90;;;0.80;;
18249;SDS011;27980;52.126;5.572;2023-03-24T10:10:40;4.53;;;0.82;;
18249;SDS011;27980;52.126;5.572;2023-03-24T10:13:24;4.22;;;0.90;;
18249;SDS011;27980;52.126;5.572;2023-03-24T10:15:54;3.40;;;0.90;;
18249;SDS011;27980;52.126;5.572;2023-03-24T10:18:28;5.50;;;1.10;;
18249;SDS011;27980;52.126;5.572;2023-03-24T10:20:58;4.72;;;1.10;;
18249;SDS011;27980;52.126;5.572;2023-03-24T10:23:29;3.90;;;0.80;;
18249;SDS011;27980;52.126;5.572;2023-03-24T10:26:02;4.32;;;1.50;;
18249;SDS011;27980;52.126;5.572;2023-03-24T10:28:35;6.13;;;1.20;;
18249;SDS011;27980;52.126;5.572;2023-03-24T10:31:06;4.03;;;1.25;;
18249;SDS011;27980;52.126;5.572;2023-03-24T10:33:35;7.20;;;0.90;;
18249;SDS011;27980;52.126;5.572;2023-03-24T10:36:05;7.30;;;1.33;;
18249;SDS011;27980;52.126;5.572;2023-03-24T10:38:34;4.43;;;0.95;;
18249;SDS011;27980;52.126;5.572;2023-03-24T10:41:01;5.32;;;1.08;;
18249;SDS011;27980;52.126;5.572;2023-03-24T10:43:29;4.72;;;0.90;;
18249;SDS011;27980;52.126;5.572;2023-03-24T10:46:13;7.65;;;1.30;;
18249;SDS011;27980;52.126;5.572;2023-03-24T10:48:41;7.30;;;1.42;;
18249;SDS011;27980;52.126;5.572;2023-03-24T10:51:19;8.30;;;1.23;;
18249;SDS011;27980;52.126;5.572;2023-03-24T10:53:46;5.45;;;1.48;;
18249;SDS011;27980;52.126;5.572;2023-03-24T10:56:20;7.15;;;1.27;;
18249;SDS011;27980;52.126;5.572;2023-03-24T10:59:04;2.50;;;1.42;;
18249;SDS011;27980;52.126;5.572;2023-03-24T11:01:33;3.30;;;1.40;;
18249;SDS011;27980;52.126;5.572;2023-03-24T11:04:05;6.85;;;1.30;;
18249;SDS011;27980;52.126;5.572;2023-03-24T11:06:33;5.35;;;2.10;;
18249;SDS011;27980;52.126;5.572;2023-03-24T11:09:10;7.00;;;2.03;;
18249;SDS011;27980;52.126;5.572;2023-03-24T11:11:44;3.20;;;1.23;;
18249;SDS011;27980;52.126;5.572;2023-03-24T11:14:17;5.50;;;1.30;;
18249;SDS011;27980;52.126;5.572;2023-03-24T11:16:45;11.10;;;1.13;;
18249;SDS011;27980;52.126;5.572;2023-03-24T11:19:17;3.70;;;1.35;;
18249;SDS011;27980;52.126;5.572;2023-03-24T11:21:43;5.65;;;1.55;;
18249;SDS011;27980;52.126;5.572;2023-03-24T11:24:10;4.20;;;1.40;;
18249;SDS011;27980;52.126;5.572;2023-03-24T11:26:43;8.18;;;1.40;;
18249;SDS011;27980;52.126;5.572;2023-03-24T11:29:11;4.57;;;1.25;;
18249;SDS011;27980;52.126;5.572;2023-03-24T11:31:39;4.88;;;0.95;;
18249;SDS011;27980;52.126;5.572;2023-03-24T11:34:13;4.03;;;1.55;;
18249;SDS011;27980;52.126;5.572;2023-03-24T11:36:47;9.13;;;1.42;;
18249;SDS011;27980;52.126;5.572;2023-03-24T11:39:17;3.83;;;0.98;;
18249;SDS011;27980;52.126;5.572;2023-03-24T11:41:51;5.85;;;1.10;;
18249;SDS011;27980;52.126;5.572;2023-03-24T11:44:19;4.57;;;1.45;;
18249;SDS011;27980;52.126;5.572;2023-03-24T11:46:49;2.67;;;0.80;;
18249;SDS011;27980;52.126;5.572;2023-03-24T11:49:22;2.58;;;0.75;;
18249;SDS011;27980;52.126;5.572;2023-03-24T11:51:51;4.75;;;0.80;;
18249;SDS011;27980;52.126;5.572;2023-03-24T11:54:20;2.30;;;1.10;;
18249;SDS011;27980;52.126;5.572;2023-03-24T11:56:51;3.63;;;1.17;;
18249;SDS011;27980;52.126;5.572;2023-03-24T11:59:23;3.95;;;0.93;;
18249;SDS011;27980;52.126;5.572;2023-03-24T12:01:54;3.30;;;0.95;;
18249;SDS011;27980;52.126;5.572;2023-03-24T12:04:30;4.15;;;1.45;;
18249;SDS011;27980;52.126;5.572;2023-03-24T12:07:03;2.90;;;1.20;;
18249;SDS011;27980;52.126;5.572;2023-03-24T12:09:37;4.55;;;0.80;;
18249;SDS011;27980;52.126;5.572;2023-03-24T12:12:12;4.15;;;1.02;;
18249;SDS011;27980;52.126;5.572;2023-03-24T12:14:44;4.30;;;1.02;;
18249;SDS011;27980;52.126;5.572;2023-03-24T12:17:14;4.35;;;1.00;;
18249;SDS011;27980;52.126;5.572;2023-03-24T12:19:58;5.57;;;1.30;;
18249;SDS011;27980;52.126;5.572;2023-03-24T12:22:33;1.88;;;0.90;;
18249;SDS011;27980;52.126;5.572;2023-03-24T12:25:06;1.63;;;0.98;;
18249;SDS011;27980;52.126;5.572;2023-03-24T12:27:47;4.65;;;0.93;;
18249;SDS011;27980;52.126;5.572;2023-03-24T12:30:18;2.28;;;1.00;;
18249;SDS011;27980;52.126;5.572;2023-03-24T12:32:53;3.15;;;1.10;;
18249;SDS011;27980;52.126;5.572;2023-03-24T12:35:34;5.70;;;1.20;;
18249;SDS011;27980;52.126;5.572;2023-03-24T12:38:05;4.03;;;0.90;;
18249;SDS011;27980;52.126;5.572;2023-03-24T12:43:29;8.10;;;1.10;;
18249;SDS011;27980;52.126;5.572;2023-03-24T12:46:00;2.83;;;1.00;;
18249;SDS011;27980;52.126;5.572;2023-03-24T12:48:37;2.00;;;0.68;;
18249;SDS011;27980;52.126;5.572;2023-03-24T12:51:12;3.42;;;0.80;;
18249;SDS011;27980;52.126;5.572;2023-03-24T12:53:44;2.67;;;1.00;;
18249;SDS011;27980;52.126;5.572;2023-03-24T12:56:14;1.70;;;0.95;;
18249;SDS011;27980;52.126;5.572;2023-03-24T12:58:43;3.60;;;1.00;;
18249;SDS011;27980;52.126;5.572;2023-03-24T13:01:12;5.50;;;1.23;;
18249;SDS011;27980;52.126;5.572;2023-03-24T13:03:42;1.52;;;0.93;;
18249;SDS011;27980;52.126;5.572;2023-03-24T13:06:16;3.25;;;0.80;;
18249;SDS011;27980;52.126;5.572;2023-03-24T13:08:46;4.32;;;0.70;;
18249;SDS011;27980;52.126;5.572;2023-03-24T13:11:14;1.65;;;0.57;;
18249;SDS011;27980;52.126;5.572;2023-03-24T13:13:44;1.63;;;0.75;;
18249;SDS011;27980;52.126;5.572;2023-03-24T13:16:14;3.45;;;0.60;;
18249;SDS011;27980;52.126;5.572;2023-03-24T13:18:43;1.90;;;0.60;;
18249;SDS011;27980;52.126;5.572;2023-03-24T13:21:11;4.22;;;0.63;;
18249;SDS011;27980;52.126;5.572;2023-03-24T13:23:44;3.45;;;0.63;;
18249;SDS011;27980;52.126;5.572;2023-03-24T13:26:17;3.35;;;0.68;;
18249;SDS011;27980;52.126;5.572;2023-03-24T13:28:50;3.17;;;1.23;;
18249;SDS011;27980;52.126;5.572;2023-03-24T13:31:20;7.18;;;1.08;;
18249;SDS011;27980;52.126;5.572;2023-03-24T13:33:47;2.42;;;1.20;;
18249;SDS011;27980;52.126;5.572;2023-03-24T13:36:21;5.88;;;1.10;;
18249;SDS011;27980;52.126;5.572;2023-03-24T13:38:51;6.50;;;1.00;;
18249;SDS011;27980;52.126;5.572;2023-03-24T13:41:21;5.95;;;1.20;;
18249;SDS011;27980;52.126;5.572;2023-03-24T13:43:56;3.58;;;1.48;;
18249;SDS011;27980;52.126;5.572;2023-03-24T13:46:23;2.13;;;1.17;;
18249;SDS011;27980;52.126;5.572;2023-03-24T13:48:50;3.95;;;1.20;;
18249;SDS011;27980;52.126;5.572;2023-03-24T13:51:17;6.15;;;1.30;;
18249;SDS011;27980;52.126;5.572;2023-03-24T13:53:45;7.13;;;1.35;;
18249;SDS011;27980;52.126;5.572;2023-03-24T13:56:22;3.38;;;1.00;;
18249;SDS011;27980;52.126;5.572;2023-03-24T13:58:50;7.90;;;0.93;;
18249;SDS011;27980;52.126;5.572;2023-03-24T14:01:31;4.43;;;0.95;;
18249;SDS011;27980;52.126;5.572;2023-03-24T14:04:17;1.58;;;0.95;;
18249;SDS011;27980;52.126;5.572;2023-03-24T14:06:46;2.22;;;0.75;;
18249;SDS011;27980;52.126;5.572;2023-03-24T14:09:14;4.82;;;0.80;;
18249;SDS011;27980;52.126;5.572;2023-03-24T14:15:01;2.88;;;0.75;;
18249;SDS011;27980;52.126;5.572;2023-03-24T14:17:23;2.20;;;0.68;;
18249;SDS011;27980;52.126;5.572;2023-03-24T14:22:34;5.18;;;0.80;;
18249;SDS011;27980;52.126;5.572;2023-03-24T14:25:17;2.00;;;0.52;;
18249;SDS011;27980;52.126;5.572;2023-03-24T14:27:46;4.35;;;0.70;;
18249;SDS011;27980;52.126;5.572;2023-03-24T14:30:19;4.85;;;0.60;;
18249;SDS011;27980;52.126;5.572;2023-03-24T14:32:46;1.92;;;0.70;;
18249;SDS011;27980;52.126;5.572;2023-03-24T14:35:21;3.10;;;1.15;;
18249;SDS011;27980;52.126;5.572;2023-03-24T14:37:50;1.05;;;0.55;;
18249;SDS011;27980;52.126;5.572;2023-03-24T14:40:23;1.40;;;0.55;;
18249;SDS011;27980;52.126;5.572;2023-03-24T14:42:53;3.15;;;0.60;;
18249;SDS011;27980;52.126;5.572;2023-03-24T14:45:38;1.85;;;0.65;;
18249;SDS011;27980;52.126;5.572;2023-03-24T14:48:11;1.17;;;0.57;;
18249;SDS011;27980;52.126;5.572;2023-03-24T14:50:41;0.50;;;0.50;;
18249;SDS011;27980;52.126;5.572;2023-03-24T14:53:11;2.60;;;0.68;;
18249;SDS011;27980;52.126;5.572;2023-03-24T14:55:42;0.65;;;0.40;;
18249;SDS011;27980;52.126;5.572;2023-03-24T14:58:11;1.58;;;0.73;;
18249;SDS011;27980;52.126;5.572;2023-03-24T15:00:45;4.30;;;0.57;;
18249;SDS011;27980;52.126;5.572;2023-03-24T15:03:15;1.85;;;0.55;;
18249;SDS011;27980;52.126;5.572;2023-03-24T15:05:42;1.20;;;0.57;;
18249;SDS011;27980;52.126;5.572;2023-03-24T15:08:12;1.08;;;0.60;;
18249;SDS011;27980;52.126;5.572;2023-03-24T15:10:40;1.40;;;0.80;;
18249;SDS011;27980;52.126;5.572;2023-03-24T15:16:04;1.25;;;0.50;;
18249;SDS011;27980;52.126;5.572;2023-03-24T15:18:31;3.55;;;0.88;;
18249;SDS011;27980;52.126;5.572;2023-03-24T15:20:58;1.55;;;0.70;;
18249;SDS011;27980;52.126;5.572;2023-03-24T15:23:24;4.65;;;0.73;;
18249;SDS011;27980;52.126;5.572;2023-03-24T15:25:52;0.95;;;0.70;;
18249;SDS011;27980;52.126;5.572;2023-03-24T15:28:19;4.93;;;1.00;;